createdAt,value
2022-09-09T00:04:26.665Z,0.70
2022-09-09T00:14:45.725Z,0.50
2022-09-09T00:20:02.285Z,0.32
2022-09-09T00:25:20.132Z,0.45
2022-09-09T00:30:25.216Z,0.55
2022-09-09T00:35:40.744Z,0.50
2022-09-09T00:41:17.016Z,0.45
2022-09-09T00:46:47.898Z,0.40
2022-09-09T00:52:02.470Z,0.43
2022-09-09T00:57:33.058Z,0.47
2022-09-09T01:02:55.282Z,0.50
2022-09-09T01:07:59.491Z,0.50
2022-09-09T01:13:06.680Z,0.50
2022-09-09T01:18:18.506Z,0.40
2022-09-09T01:23:41.759Z,0.40
2022-09-09T01:28:59.749Z,0.50
2022-09-09T01:34:13.875Z,0.40
2022-09-09T01:39:16.593Z,0.50
2022-09-09T01:44:20.609Z,0.68
2022-09-09T01:49:22.823Z,0.40
2022-09-09T01:54:28.937Z,0.40
2022-09-09T01:59:39.084Z,0.40
2022-09-09T02:04:43.164Z,0.30
2022-09-09T02:09:58.713Z,0.40
2022-09-09T02:15:06.265Z,0.50
2022-09-09T02:20:20.499Z,0.50
2022-09-09T02:25:34.648Z,0.55
2022-09-09T02:30:56.200Z,0.40
2022-09-09T02:36:07.687Z,0.50
2022-09-09T02:41:11.192Z,0.57
2022-09-09T02:46:26.388Z,0.55
2022-09-09T02:51:44.448Z,0.60
2022-09-09T02:56:52.856Z,0.80
2022-09-09T03:01:56.438Z,0.30
2022-09-09T03:07:00.157Z,0.52
2022-09-09T03:12:02.007Z,0.50
2022-09-09T03:17:10.230Z,0.70
2022-09-09T03:22:19.096Z,0.60
2022-09-09T03:27:22.025Z,0.38
2022-09-09T03:32:24.376Z,0.63
2022-09-09T03:37:26.137Z,0.38
2022-09-09T03:42:28.696Z,0.55
2022-09-09T03:47:32.245Z,0.47
2022-09-09T03:52:41.883Z,0.50
2022-09-09T04:02:51.065Z,0.45
2022-09-09T04:07:53.347Z,0.60
2022-09-09T04:12:56.088Z,0.60
2022-09-09T04:17:58.028Z,0.70
2022-09-09T04:22:59.735Z,0.55
2022-09-09T04:28:01.945Z,0.70
2022-09-09T04:33:04.873Z,0.57
2022-09-09T04:38:10.383Z,0.70
2022-09-09T04:43:14.434Z,0.68
2022-09-09T04:48:18.745Z,0.60
2022-09-09T04:53:20.764Z,0.60
2022-09-09T04:58:23.520Z,0.60
2022-09-09T05:03:25.713Z,0.88
2022-09-09T05:08:27.768Z,0.50
2022-09-09T05:13:29.988Z,0.43
2022-09-09T05:18:31.998Z,0.60
2022-09-09T05:23:36.244Z,0.52
2022-09-09T05:28:37.989Z,0.70
2022-09-09T05:33:41.759Z,0.68
2022-09-09T05:38:44.940Z,0.57
2022-09-09T05:43:48.556Z,0.50
2022-09-09T05:48:52.453Z,0.70
2022-09-09T05:53:56.209Z,0.60
2022-09-09T05:59:01.035Z,0.50
2022-09-09T06:04:04.785Z,0.70
2022-09-09T06:09:11.231Z,0.73
2022-09-09T06:14:15.557Z,0.70
2022-09-09T06:19:21.565Z,1.08
2022-09-09T06:24:24.671Z,1.00
2022-09-09T06:29:26.433Z,0.95
2022-09-09T06:34:29.389Z,0.82
2022-09-09T06:39:35.069Z,1.10
2022-09-09T06:44:37.485Z,0.80
2022-09-09T06:49:48.204Z,1.30
2022-09-09T06:54:50.905Z,0.77
2022-09-09T06:59:52.924Z,0.80
2022-09-09T07:04:55.480Z,0.70
2022-09-09T07:09:58.080Z,1.35
2022-09-09T07:14:59.978Z,1.20
2022-09-09T07:20:03.789Z,0.93
2022-09-09T07:25:06.576Z,0.90
2022-09-09T07:30:09.498Z,1.30
2022-09-09T07:35:11.433Z,1.42
2022-09-09T07:40:13.272Z,0.98
2022-09-09T07:45:15.524Z,0.70
2022-09-09T07:50:17.225Z,0.80
2022-09-09T07:55:20.554Z,0.50
2022-09-09T08:00:23.136Z,0.70
2022-09-09T08:05:29.433Z,0.47
2022-09-09T08:10:31.467Z,0.80
2022-09-09T08:15:35.532Z,0.80
2022-09-09T08:26:22.448Z,0.88
2022-09-09T08:33:28.912Z,1.15
2022-09-09T08:38:30.936Z,0.80
2022-09-09T08:43:34.507Z,0.88
2022-09-09T08:48:53.341Z,0.80
2022-09-09T08:53:59.886Z,0.80
2022-09-09T08:59:04.180Z,1.00
2022-09-09T09:04:39.175Z,1.35
2022-09-09T09:09:52.865Z,1.10
2022-09-09T09:14:56.516Z,1.10
2022-09-09T09:20:00.617Z,1.25
2022-09-09T09:25:09.261Z,1.20
2022-09-09T09:30:30.006Z,0.63
2022-09-09T09:35:41.990Z,1.33
2022-09-09T09:40:59.046Z,0.77
2022-09-09T09:46:17.658Z,1.40
2022-09-09T09:56:30.106Z,1.50
2022-09-09T10:01:35.330Z,0.80
2022-09-09T10:06:41.713Z,1.05
2022-09-09T10:12:07.893Z,0.52
2022-09-09T10:17:24.788Z,0.38
2022-09-09T10:22:35.486Z,0.40
2022-09-09T10:27:58.914Z,0.70
2022-09-09T10:33:20.588Z,0.32
2022-09-09T10:38:42.247Z,0.20
2022-09-09T10:44:25.481Z,1.95
2022-09-09T10:49:50.776Z,0.73
2022-09-09T10:55:03.302Z,0.70
2022-09-09T11:00:15.474Z,0.40
2022-09-09T11:05:21.626Z,0.30
2022-09-09T11:10:31.396Z,0.55
2022-09-09T11:15:42.506Z,0.35
2022-09-09T11:20:48.480Z,0.32
2022-09-09T11:25:57.949Z,0.30
2022-09-09T11:31:11.630Z,0.40
2022-09-09T11:36:31.268Z,0.13
2022-09-09T11:46:42.477Z,0.32
2022-09-09T11:51:44.088Z,0.32
2022-09-09T11:56:46.681Z,0.10
2022-09-09T12:01:58.131Z,0.30
2022-09-09T12:07:23.532Z,0.10
2022-09-09T12:12:25.452Z,0.40
2022-09-09T12:17:32.635Z,0.30
2022-09-09T12:22:46.374Z,0.20
2022-09-09T12:28:16.932Z,0.20
2022-09-09T12:33:20.316Z,0.28
2022-09-09T12:38:42.218Z,0.43
2022-09-09T12:43:43.804Z,0.30
2022-09-09T12:48:46.791Z,0.45
2022-09-09T12:53:48.701Z,0.25
2022-09-09T12:58:52.933Z,0.20
2022-09-09T13:03:55.581Z,0.40
2022-09-09T13:09:00.177Z,0.28
2022-09-09T13:14:02.269Z,0.30
2022-09-09T13:19:14.932Z,0.22
2022-09-09T13:24:23.033Z,0.57
2022-09-09T13:29:25.256Z,0.40
2022-09-09T13:34:32.456Z,0.50
2022-09-09T13:39:38.522Z,0.32
2022-09-09T13:44:42.734Z,0.30
2022-09-09T13:49:44.362Z,0.30
2022-09-09T13:54:50.514Z,0.35
2022-09-09T14:00:11.011Z,0.40
2022-09-09T14:05:12.872Z,0.57
2022-09-09T14:10:14.537Z,0.20
2022-09-09T14:15:16.278Z,0.30
2022-09-09T14:20:18.637Z,0.40
2022-09-09T14:25:20.310Z,0.20
2022-09-09T14:30:21.888Z,0.30
2022-09-09T14:35:23.692Z,0.20
2022-09-09T14:40:25.540Z,0.28
2022-09-09T14:45:27.668Z,0.40
2022-09-09T14:50:30.320Z,0.50
2022-09-09T14:55:32.388Z,0.20
2022-09-09T15:00:34.078Z,0.50
2022-09-09T15:05:37.259Z,0.40
2022-09-09T15:10:40.052Z,0.22
2022-09-09T15:15:42.582Z,0.55
2022-09-09T15:20:47.395Z,0.25
2022-09-09T15:25:56.834Z,0.30
2022-09-09T15:30:59.068Z,0.40
2022-09-09T15:36:00.993Z,0.30
2022-09-09T15:41:02.593Z,0.30
2022-09-09T15:46:18.041Z,0.40
2022-09-09T15:51:41.029Z,0.47
2022-09-09T15:56:42.028Z,0.93
2022-09-09T16:01:44.989Z,0.60
2022-09-09T16:06:47.757Z,0.60
2022-09-09T16:11:49.764Z,0.60
2022-09-09T16:16:51.311Z,0.40
2022-09-09T16:21:52.872Z,0.50
2022-09-09T16:26:55.337Z,0.47
2022-09-09T16:32:00.027Z,0.52
2022-09-09T16:37:03.350Z,0.60
2022-09-09T16:42:05.822Z,0.50
2022-09-09T16:47:07.589Z,0.52
2022-09-09T16:52:09.349Z,0.70
2022-09-09T16:57:11.176Z,0.50
2022-09-09T17:02:13.326Z,0.60
2022-09-09T17:07:15.026Z,0.80
2022-09-09T17:12:17.182Z,0.80
2022-09-09T17:17:31.204Z,0.47
2022-09-09T17:22:33.816Z,0.70
2022-09-09T17:27:35.416Z,0.77
2022-09-09T17:32:37.356Z,0.40
2022-09-09T17:37:39.091Z,0.68
2022-09-09T17:42:41.652Z,0.65
2022-09-09T17:47:43.866Z,0.50
2022-09-09T17:52:45.643Z,0.68
2022-09-09T17:57:47.185Z,3.58
2022-09-09T18:02:49.594Z,0.90
2022-09-09T18:07:51.245Z,0.60
2022-09-09T18:12:53.005Z,0.80
2022-09-09T18:17:54.772Z,0.90
2022-09-09T18:22:56.500Z,0.50
2022-09-09T18:27:58.632Z,0.50
2022-09-09T18:33:00.601Z,0.70
2022-09-09T18:38:02.180Z,0.57
2022-09-09T18:43:04.084Z,0.60
2022-09-09T18:48:05.675Z,0.70
2022-09-09T18:53:07.233Z,0.45
2022-09-09T18:58:08.809Z,0.60
2022-09-09T19:03:10.561Z,0.60
2022-09-09T19:08:12.138Z,0.55
2022-09-09T19:13:14.296Z,0.60
2022-09-09T19:18:15.894Z,0.43
2022-09-09T19:23:17.501Z,0.50
2022-09-09T19:28:19.302Z,0.63
2022-09-09T19:33:20.840Z,0.50
2022-09-09T19:38:22.785Z,0.82
2022-09-09T19:43:24.911Z,0.55
2022-09-09T19:48:31.382Z,0.68
2022-09-09T19:53:36.268Z,0.43
2022-09-09T19:58:45.401Z,0.40
2022-09-09T20:08:50.892Z,0.52
2022-09-09T20:13:53.076Z,0.60
2022-09-09T20:19:11.662Z,0.35
2022-09-09T20:24:15.006Z,0.30
2022-09-09T20:29:19.131Z,0.38
2022-09-09T20:34:22.847Z,0.40
2022-09-09T20:39:25.536Z,0.40
2022-09-09T20:44:27.785Z,0.45
2022-09-09T20:49:30.288Z,0.28
2022-09-09T20:54:31.968Z,0.32
2022-09-09T20:59:34.856Z,0.30
2022-09-09T21:04:38.084Z,0.40
2022-09-09T21:09:41.037Z,0.65
2022-09-09T21:14:42.628Z,0.73
2022-09-09T21:19:45.333Z,0.55
2022-09-09T21:24:46.982Z,0.30
2022-09-09T21:29:49.962Z,0.30
2022-09-09T21:34:51.945Z,0.60
2022-09-09T21:39:53.491Z,0.40
2022-09-09T21:44:55.935Z,0.93
2022-09-09T21:49:57.730Z,0.68
2022-09-09T21:54:59.281Z,0.70
2022-09-09T22:00:01.210Z,0.77
2022-09-09T22:05:02.949Z,0.55
2022-09-09T22:10:11.590Z,0.60
2022-09-09T22:15:14.216Z,0.60
2022-09-09T22:20:16.130Z,0.60
2022-09-09T22:25:17.798Z,0.50
2022-09-09T22:30:19.836Z,0.50
2022-09-09T22:35:21.941Z,0.60
2022-09-09T22:40:24.052Z,0.60
2022-09-09T22:45:25.750Z,0.70
2022-09-09T22:50:27.980Z,0.63
2022-09-09T22:55:29.664Z,0.82
2022-09-09T23:00:31.488Z,0.82
2022-09-09T23:05:34.192Z,1.35
2022-09-09T23:10:35.789Z,0.80
2022-09-09T23:15:37.725Z,1.48
2022-09-09T23:20:39.351Z,2.47
2022-09-09T23:25:40.889Z,3.47
2022-09-09T23:30:42.538Z,3.85
2022-09-09T23:35:44.427Z,4.18
2022-09-09T23:40:46.948Z,5.78
2022-09-09T23:45:50.684Z,5.75
2022-09-09T23:50:52.249Z,5.25
2022-09-09T23:55:53.797Z,4.38
